createdAt,value
2023-04-01T00:01:17.794Z,66.33
2023-04-01T00:03:46.557Z,64.06
2023-04-01T00:06:17.165Z,62.27
2023-04-01T00:08:45.974Z,58.62
2023-04-01T00:11:15.059Z,55.91
2023-04-01T00:13:43.847Z,56.77
2023-04-01T00:16:21.134Z,58.21
2023-04-01T00:18:52.587Z,59.38
2023-04-01T00:21:21.953Z,61.39
2023-04-01T00:23:51.841Z,64.85
2023-04-01T00:26:22.533Z,67.84
2023-04-01T00:28:52.243Z,64.89
2023-04-01T00:31:21.231Z,62.46
2023-04-01T00:33:49.534Z,58.88
2023-04-01T00:36:20.828Z,56.36
2023-04-01T00:38:49.121Z,57.13
2023-04-01T00:41:18.346Z,58.71
2023-04-01T00:43:51.968Z,60.10
2023-04-01T00:46:20.601Z,63.81
2023-04-01T00:48:55.238Z,66.82
2023-04-01T00:51:27.320Z,64.95
2023-04-01T00:53:59.155Z,62.53
2023-04-01T00:56:33.480Z,58.37
2023-04-01T00:59:05.330Z,56.03
2023-04-01T01:01:35.193Z,56.86
2023-04-01T01:04:03.558Z,58.46
2023-04-01T01:06:48.107Z,60.08
2023-04-01T01:09:35.099Z,63.94
2023-04-01T01:12:43.761Z,66.36
2023-04-01T01:15:26.541Z,64.57
2023-04-01T01:18:09.584Z,62.28
2023-04-01T01:21:06.096Z,58.06
2023-04-01T01:23:40.426Z,55.44
2023-04-01T01:26:17.802Z,54.88
2023-04-01T01:29:13.803Z,57.81
2023-04-01T01:31:56.454Z,59.11
2023-04-01T01:34:49.707Z,63.34
2023-04-01T01:37:20.340Z,66.98
2023-04-01T01:40:06.222Z,65.04
2023-04-01T01:42:40.641Z,62.86
2023-04-01T01:45:11.287Z,57.70
2023-04-01T01:47:42.643Z,55.18
2023-04-01T01:50:12.948Z,56.08
2023-04-01T01:52:41.022Z,57.70
2023-04-01T01:55:32.139Z,59.06
2023-04-01T01:58:05.951Z,59.87
2023-04-01T02:00:36.137Z,63.93
2023-04-01T02:03:06.269Z,66.88
2023-04-01T02:05:35.549Z,64.57
2023-04-01T02:08:19.629Z,62.54
2023-04-01T02:10:57.143Z,58.51
2023-04-01T02:13:35.727Z,55.96
2023-04-01T02:16:10.145Z,56.96
2023-04-01T02:18:40.080Z,58.46
2023-04-01T02:21:09.672Z,59.95
2023-04-01T02:23:39.693Z,63.41
2023-04-01T02:26:10.882Z,66.27
2023-04-01T02:28:40.294Z,64.24
2023-04-01T02:31:11.785Z,61.99
2023-04-01T02:33:41.114Z,58.37
2023-04-01T02:36:14.391Z,56.05
2023-04-01T02:38:45.796Z,56.88
2023-04-01T02:41:14.198Z,58.55
2023-04-01T02:43:42.180Z,59.83
2023-04-01T02:46:10.375Z,63.13
2023-04-01T02:48:38.506Z,66.08
2023-04-01T02:51:06.898Z,64.56
2023-04-01T02:53:34.884Z,62.82
2023-04-01T02:56:02.828Z,58.71
2023-04-01T02:58:31.215Z,56.13
2023-04-01T03:00:59.304Z,57.02
2023-04-01T03:03:27.425Z,58.45
2023-04-01T03:05:57.478Z,59.83
2023-04-01T03:08:25.762Z,63.41
2023-04-01T03:10:53.746Z,66.81
2023-04-01T03:13:21.692Z,64.68
2023-04-01T03:15:49.666Z,61.55
2023-04-01T03:18:17.638Z,58.09
2023-04-01T03:20:46.925Z,55.99
2023-04-01T03:23:15.656Z,56.92
2023-04-01T03:25:44.207Z,58.45
2023-04-01T03:28:13.644Z,59.87
2023-04-01T03:30:43.849Z,63.09
2023-04-01T03:33:12.298Z,66.64
2023-04-01T03:35:40.624Z,64.81
2023-04-01T03:38:08.654Z,62.37
2023-04-01T03:40:39.476Z,58.78
2023-04-01T03:43:09.567Z,56.49
2023-04-01T03:45:51.518Z,57.36
2023-04-01T03:48:19.894Z,58.53
2023-04-01T03:50:48.659Z,60.36
2023-04-01T03:53:16.936Z,64.15
2023-04-01T03:55:45.223Z,66.96
2023-04-01T03:58:13.286Z,65.47
2023-04-01T04:00:41.867Z,62.52
2023-04-01T04:03:11.064Z,58.30
2023-04-01T04:05:46.745Z,56.74
2023-04-01T04:08:14.885Z,57.50
2023-04-01T04:10:43.287Z,59.36
2023-04-01T04:13:11.548Z,62.98
2023-04-01T04:15:44.390Z,66.54
2023-04-01T04:18:12.426Z,64.79
2023-04-01T04:20:53.103Z,62.53
2023-04-01T04:23:21.263Z,59.25
2023-04-01T04:26:01.188Z,57.04
2023-04-01T04:28:30.279Z,57.85
2023-04-01T04:30:59.518Z,59.48
2023-04-01T04:33:28.170Z,62.72
2023-04-01T04:35:58.663Z,66.33
2023-04-01T04:38:27.588Z,64.59
2023-04-01T04:40:56.590Z,63.20
2023-04-01T04:43:24.753Z,59.43
2023-04-01T04:45:53.228Z,56.74
2023-04-01T04:48:21.603Z,57.61
2023-04-01T04:50:51.716Z,59.10
2023-04-01T04:53:20.817Z,60.45
2023-04-01T04:55:51.421Z,64.02
2023-04-01T04:58:27.639Z,67.15
2023-04-01T05:00:56.127Z,64.28
2023-04-01T05:03:29.236Z,62.43
2023-04-01T05:05:57.766Z,58.78
2023-04-01T05:08:26.379Z,56.22
2023-04-01T05:10:54.536Z,57.11
2023-04-01T05:13:22.696Z,58.65
2023-04-01T05:15:50.664Z,60.25
2023-04-01T05:18:19.085Z,63.88
2023-04-01T05:20:52.490Z,66.31
2023-04-01T05:23:22.563Z,63.75
2023-04-01T05:25:52.093Z,61.94
2023-04-01T05:28:21.461Z,58.85
2023-04-01T05:30:50.088Z,56.95
2023-04-01T05:33:27.348Z,57.86
2023-04-01T05:35:55.760Z,59.50
2023-04-01T05:38:24.192Z,63.71
2023-04-01T05:40:52.307Z,65.57
2023-04-01T05:43:20.645Z,63.47
2023-04-01T05:45:49.885Z,61.17
2023-04-01T05:48:49.146Z,57.94
2023-04-01T05:51:17.634Z,56.73
2023-04-01T05:53:46.310Z,57.84
2023-04-01T05:56:14.900Z,59.30
2023-04-01T05:58:54.159Z,60.50
2023-04-01T06:01:23.114Z,63.80
2023-04-01T06:03:51.381Z,65.07
2023-04-01T06:06:29.248Z,63.83
2023-04-01T06:09:33.614Z,62.47
2023-04-01T06:12:23.292Z,58.47
2023-04-01T06:15:13.490Z,56.45
2023-04-01T06:17:45.664Z,57.37
2023-04-01T06:20:16.099Z,58.99
2023-04-01T06:23:02.928Z,60.38
2023-04-01T06:25:47.754Z,63.91
2023-04-01T06:28:18.997Z,64.98
2023-04-01T06:31:10.092Z,62.66
2023-04-01T06:34:18.174Z,58.50
2023-04-01T06:37:07.592Z,56.05
2023-04-01T06:39:54.402Z,57.15
2023-04-01T06:42:25.746Z,58.99
2023-04-01T06:45:09.098Z,60.42
2023-04-01T06:48:44.527Z,64.79
2023-04-01T06:52:06.873Z,63.17
2023-04-01T06:55:02.643Z,57.91
2023-04-01T06:57:59.716Z,57.29
2023-04-01T07:00:27.710Z,59.29
2023-04-01T07:03:23.154Z,59.50
2023-04-01T07:05:51.917Z,59.28
2023-04-01T07:08:28.133Z,60.40
2023-04-01T07:11:08.026Z,63.26
2023-04-01T07:14:01.075Z,63.50
2023-04-01T07:16:40.034Z,61.41
2023-04-01T07:19:11.240Z,57.22
2023-04-01T07:22:25.027Z,55.00
2023-04-01T07:25:21.451Z,56.77
2023-04-01T07:28:02.964Z,58.11
2023-04-01T07:30:49.762Z,57.76
2023-04-01T07:33:24.101Z,58.46
2023-04-01T07:36:21.421Z,59.30
2023-04-01T07:39:07.393Z,60.00
2023-04-01T07:42:13.239Z,63.82
2023-04-01T07:45:06.199Z,62.90
2023-04-01T07:47:59.938Z,58.03
2023-04-01T07:50:38.610Z,55.55
2023-04-01T07:53:19.460Z,55.49
2023-04-01T07:56:00.761Z,56.18
2023-04-01T07:58:52.006Z,57.50
2023-04-01T08:01:50.972Z,57.42
2023-04-01T08:04:29.501Z,57.93
2023-04-01T08:07:09.649Z,58.43
2023-04-01T08:09:53.163Z,59.68
2023-04-01T08:13:17.442Z,60.23
2023-04-01T08:16:04.564Z,63.99
2023-04-01T08:18:58.124Z,62.61
2023-04-01T08:21:48.942Z,57.82
2023-04-01T08:24:55.501Z,55.66
2023-04-01T08:28:02.949Z,56.20
2023-04-01T08:30:54.124Z,55.96
2023-04-01T08:33:27.407Z,57.29
2023-04-01T08:36:26.230Z,57.71
2023-04-01T08:39:23.870Z,57.70
2023-04-01T08:42:29.105Z,58.02
2023-04-01T08:45:25.982Z,58.85
2023-04-01T08:48:10.076Z,58.79
2023-04-01T08:50:54.457Z,60.21
2023-04-01T08:53:50.163Z,59.54
2023-04-01T08:56:44.248Z,60.15
2023-04-01T08:59:29.007Z,59.60
2023-04-01T09:02:20.544Z,59.34
2023-04-01T09:05:13.486Z,59.68
2023-04-01T09:07:44.685Z,60.18
2023-04-01T09:10:51.266Z,60.77
2023-04-01T09:13:48.557Z,61.41
2023-04-01T09:16:26.120Z,59.59
2023-04-01T09:19:16.193Z,60.27
2023-04-01T09:21:51.481Z,60.39
2023-04-01T09:24:22.522Z,60.09
2023-04-01T09:27:09.244Z,59.23
2023-04-01T09:30:05.880Z,59.51
2023-04-01T09:33:07.921Z,58.88
2023-04-01T09:36:06.230Z,59.99
2023-04-01T09:39:08.906Z,60.49
2023-04-01T09:42:03.908Z,60.33
2023-04-01T09:44:59.123Z,60.59
2023-04-01T09:48:08.868Z,60.35
2023-04-01T09:50:55.162Z,60.68
2023-04-01T09:53:31.938Z,60.93
2023-04-01T09:56:04.021Z,61.14
2023-04-01T09:58:43.924Z,61.78
2023-04-01T10:02:13.369Z,65.53
2023-04-01T10:04:53.099Z,67.55
2023-04-01T10:07:43.188Z,63.76
2023-04-01T10:10:34.345Z,58.80
2023-04-01T10:13:17.875Z,56.35
2023-04-01T10:15:55.167Z,56.91
2023-04-01T10:18:41.212Z,58.29
2023-04-01T10:21:31.634Z,60.35
2023-04-01T10:24:03.128Z,61.22
2023-04-01T10:26:53.553Z,60.84
2023-04-01T10:30:06.704Z,60.81
2023-04-01T10:32:44.769Z,64.64
2023-04-01T10:35:35.585Z,66.39
2023-04-01T10:38:35.277Z,63.76
2023-04-01T10:41:29.800Z,56.33
2023-04-01T10:44:42.208Z,54.38
2023-04-01T10:47:55.874Z,55.16
2023-04-01T10:50:40.853Z,56.26
2023-04-01T10:53:24.344Z,57.23
2023-04-01T10:56:29.509Z,58.97
2023-04-01T10:59:29.948Z,59.27
2023-04-01T11:02:34.768Z,60.44
2023-04-01T11:05:58.729Z,60.03
2023-04-01T11:08:46.913Z,60.49
2023-04-01T11:11:23.768Z,60.32
2023-04-01T11:14:19.909Z,60.62
2023-04-01T11:16:56.857Z,61.72
2023-04-01T11:19:42.183Z,64.19
2023-04-01T11:22:30.986Z,65.17
2023-04-01T11:25:07.776Z,62.37
2023-04-01T11:27:56.186Z,57.58
2023-04-01T11:30:48.653Z,56.41
2023-04-01T11:33:29.802Z,58.24
2023-04-01T11:36:11.519Z,58.72
2023-04-01T11:39:23.079Z,60.10
2023-04-01T11:42:44.968Z,61.13
2023-04-01T11:45:36.997Z,66.55
2023-04-01T11:48:24.237Z,66.14
2023-04-01T11:50:58.922Z,63.98
2023-04-01T11:53:52.086Z,58.56
2023-04-01T11:56:37.545Z,55.55
2023-04-01T11:59:16.692Z,55.79
2023-04-01T12:01:44.735Z,56.34
2023-04-01T12:04:49.975Z,57.65
2023-04-01T12:07:55.636Z,57.23
2023-04-01T12:10:46.684Z,57.88
2023-04-01T12:13:32.965Z,59.12
2023-04-01T12:16:09.371Z,59.84
2023-04-01T12:18:56.069Z,60.07
2023-04-01T12:22:14.085Z,60.27
2023-04-01T12:25:03.968Z,60.27
2023-04-01T12:27:47.402Z,64.19
2023-04-01T12:30:40.562Z,65.24
2023-04-01T12:33:49.905Z,60.19
2023-04-01T12:36:18.494Z,56.00
2023-04-01T12:39:05.084Z,56.23
2023-04-01T12:41:55.773Z,56.76
2023-04-01T12:44:52.850Z,57.46
2023-04-01T12:47:45.840Z,57.23
2023-04-01T12:50:32.250Z,57.99
2023-04-01T12:53:04.182Z,57.93
2023-04-01T12:55:44.223Z,57.80
2023-04-01T12:58:21.850Z,58.82
2023-04-01T13:01:08.472Z,59.45
2023-04-01T13:03:39.692Z,59.23
2023-04-01T13:06:48.552Z,59.27
2023-04-01T13:09:24.901Z,59.49
2023-04-01T13:12:41.543Z,58.67
2023-04-01T13:15:29.002Z,58.14
2023-04-01T13:18:06.713Z,59.82
2023-04-01T13:20:46.250Z,60.35
2023-04-01T13:23:34.566Z,60.11
2023-04-01T13:26:15.665Z,58.66
2023-04-01T13:29:12.309Z,59.07
2023-04-01T13:31:43.439Z,57.61
2023-04-01T13:34:49.280Z,56.87
2023-04-01T13:37:29.645Z,57.71
2023-04-01T13:40:34.210Z,58.13
2023-04-01T13:43:17.930Z,57.21
2023-04-01T13:46:05.043Z,57.88
2023-04-01T13:48:36.298Z,58.82
2023-04-01T13:51:29.542Z,59.18
2023-04-01T13:54:00.366Z,58.68
2023-04-01T13:56:39.823Z,57.96
2023-04-01T13:59:48.535Z,58.36
2023-04-01T14:03:07.571Z,59.26
2023-04-01T14:05:43.437Z,58.59
2023-04-01T14:08:37.359Z,58.75
2023-04-01T14:11:19.125Z,59.49
2023-04-01T14:14:08.178Z,59.99
2023-04-01T14:17:02.562Z,60.36
2023-04-01T14:19:38.211Z,59.52
2023-04-01T14:22:18.272Z,59.16
2023-04-01T14:25:37.068Z,58.81
2023-04-01T14:28:39.807Z,58.67
2023-04-01T14:31:28.333Z,59.59
2023-04-01T14:34:18.591Z,59.07
2023-04-01T14:37:31.693Z,59.23
2023-04-01T14:40:27.649Z,59.39
2023-04-01T14:42:55.696Z,59.73
2023-04-01T14:46:02.794Z,59.93
2023-04-01T14:48:34.653Z,61.11
2023-04-01T14:51:17.083Z,63.08
2023-04-01T14:54:05.781Z,65.13
2023-04-01T14:57:14.318Z,64.75
2023-04-01T14:59:54.771Z,66.46
2023-04-01T15:02:28.890Z,65.23
2023-04-01T15:05:12.933Z,60.93
2023-04-01T15:07:44.265Z,58.87
2023-04-01T15:10:44.596Z,61.96
2023-04-01T15:13:40.589Z,66.33
2023-04-01T15:16:11.754Z,63.24
2023-04-01T15:18:59.828Z,60.53
2023-04-01T15:22:03.316Z,57.90
2023-04-01T15:24:48.347Z,60.07
2023-04-01T15:27:58.833Z,61.55
2023-04-01T15:30:35.762Z,66.63
2023-04-01T15:33:19.015Z,60.98
2023-04-01T15:36:06.318Z,56.01
2023-04-01T15:38:49.100Z,57.30
2023-04-01T15:41:42.658Z,59.74
2023-04-01T15:44:44.724Z,63.14
2023-04-01T15:47:25.043Z,63.29
2023-04-01T15:49:59.638Z,60.83
2023-04-01T15:52:51.433Z,55.91
2023-04-01T15:55:22.174Z,57.15
2023-04-01T15:58:27.630Z,59.98
2023-04-01T16:01:06.072Z,61.82
2023-04-01T16:03:46.636Z,63.84
2023-04-01T16:06:48.593Z,63.87
2023-04-01T16:09:41.000Z,57.35
2023-04-01T16:12:43.065Z,56.99
2023-04-01T16:15:30.557Z,60.32
2023-04-01T16:18:14.101Z,63.05
2023-04-01T16:21:16.298Z,62.74
2023-04-01T16:23:59.349Z,60.67
2023-04-01T16:26:44.601Z,56.15
2023-04-01T16:29:21.713Z,56.68
2023-04-01T16:32:15.026Z,60.05
2023-04-01T16:35:15.259Z,63.57
2023-04-01T16:37:46.500Z,64.13
2023-04-01T16:40:26.682Z,58.72
2023-04-01T16:43:06.956Z,57.58
2023-04-01T16:45:49.241Z,57.75
2023-04-01T16:48:23.201Z,60.41
2023-04-01T16:51:04.323Z,62.12
2023-04-01T16:53:49.891Z,67.21
2023-04-01T16:56:39.357Z,65.78
2023-04-01T16:59:07.902Z,62.28
2023-04-01T17:01:51.736Z,58.11
2023-04-01T17:04:30.610Z,57.04
2023-04-01T17:07:29.630Z,59.14
2023-04-01T17:10:09.669Z,60.22
2023-04-01T17:13:00.770Z,65.17
2023-04-01T17:15:44.236Z,65.90
2023-04-01T17:18:31.114Z,61.28
2023-04-01T17:21:14.995Z,58.18
2023-04-01T17:23:45.077Z,59.11
2023-04-01T17:27:07.154Z,64.09
2023-04-01T17:30:01.833Z,64.10
2023-04-01T17:32:40.865Z,63.17
2023-04-01T17:35:23.968Z,60.86
2023-04-01T17:38:14.486Z,59.17
2023-04-01T17:40:58.908Z,59.13
2023-04-01T17:43:32.829Z,62.51
2023-04-01T17:46:26.832Z,66.29
2023-04-01T17:49:19.362Z,63.63
2023-04-01T17:51:58.983Z,59.66
2023-04-01T17:54:47.125Z,56.18
2023-04-01T17:57:42.686Z,57.51
2023-04-01T18:00:14.439Z,59.46
2023-04-01T18:03:27.366Z,62.83
2023-04-01T18:06:20.085Z,66.86
2023-04-01T18:09:14.641Z,63.98
2023-04-01T18:11:45.548Z,62.45
2023-04-01T18:14:36.510Z,57.19
2023-04-01T18:17:40.151Z,55.65
2023-04-01T18:20:33.405Z,59.16
2023-04-01T18:23:28.277Z,63.83
2023-04-01T18:26:06.206Z,62.76
2023-04-01T18:28:41.241Z,58.16
2023-04-01T18:31:20.313Z,57.85
2023-04-01T18:33:54.263Z,59.10
2023-04-01T18:36:42.604Z,63.95
2023-04-01T18:39:26.063Z,64.58
2023-04-01T18:42:09.524Z,59.84
2023-04-01T18:44:44.030Z,56.11
2023-04-01T18:47:34.012Z,56.75
2023-04-01T18:50:36.950Z,59.59
2023-04-01T18:53:36.254Z,59.44
2023-04-01T18:56:07.883Z,65.31
2023-04-01T18:59:13.903Z,63.18
2023-04-01T19:02:00.678Z,56.57
2023-04-01T19:04:52.006Z,56.40
2023-04-01T19:07:38.321Z,58.51
2023-04-01T19:10:17.626Z,60.80
2023-04-01T19:13:07.104Z,65.12
2023-04-01T19:15:45.299Z,66.72
2023-04-01T19:18:22.611Z,60.91
2023-04-01T19:21:14.445Z,57.58
2023-04-01T19:24:08.206Z,57.23
2023-04-01T19:26:47.457Z,60.69
2023-04-01T19:29:25.382Z,61.61
2023-04-01T19:32:18.394Z,65.00
2023-04-01T19:35:04.806Z,62.16
2023-04-01T19:37:49.785Z,58.22
2023-04-01T19:40:49.066Z,57.16
2023-04-01T19:43:41.824Z,60.15
2023-04-01T19:46:13.077Z,61.65
2023-04-01T19:49:16.169Z,64.19
2023-04-01T19:51:55.890Z,67.29
2023-04-01T19:54:48.061Z,63.02
2023-04-01T19:57:41.595Z,57.10
2023-04-01T20:00:38.343Z,56.54
2023-04-01T20:03:27.733Z,58.77
2023-04-01T20:05:56.635Z,61.74
2023-04-01T20:08:37.625Z,65.63
2023-04-01T20:11:25.156Z,63.58
2023-04-01T20:13:59.801Z,61.90
2023-04-01T20:17:03.978Z,57.90
2023-04-01T20:19:36.491Z,56.76
2023-04-01T20:22:17.229Z,58.20
2023-04-01T20:24:48.294Z,58.85
2023-04-01T20:27:26.601Z,62.98
2023-04-01T20:30:27.917Z,66.17
2023-04-01T20:33:25.850Z,63.33
2023-04-01T20:36:47.211Z,60.83
2023-04-01T20:39:33.492Z,57.00
2023-04-01T20:42:07.312Z,56.46
2023-04-01T20:44:55.451Z,58.95
2023-04-01T20:47:48.518Z,59.90
2023-04-01T20:50:50.781Z,61.35
2023-04-01T20:53:23.056Z,65.90
2023-04-01T20:56:17.325Z,65.24
2023-04-01T20:59:21.055Z,63.47
2023-04-01T21:02:00.356Z,59.79
2023-04-01T21:04:52.183Z,57.07
2023-04-01T21:08:01.714Z,57.14
2023-04-01T21:10:51.513Z,58.59
2023-04-01T21:13:51.586Z,61.25
2023-04-01T21:16:29.675Z,65.24
2023-04-01T21:19:35.144Z,63.46
2023-04-01T21:22:41.296Z,60.65
2023-04-01T21:25:21.253Z,57.32
2023-04-01T21:28:17.174Z,57.42
2023-04-01T21:31:27.012Z,60.67
2023-04-01T21:34:16.442Z,65.52
2023-04-01T21:36:53.653Z,63.56
2023-04-01T21:39:52.277Z,61.06
2023-04-01T21:42:44.235Z,57.23
2023-04-01T21:45:34.261Z,58.61
2023-04-01T21:48:02.541Z,60.06
2023-04-01T21:50:43.278Z,60.72
2023-04-01T21:53:14.089Z,65.92
2023-04-01T21:55:57.649Z,66.67
2023-04-01T21:59:08.006Z,65.08
2023-04-01T22:02:14.267Z,58.48
2023-04-01T22:04:54.060Z,57.68
2023-04-01T22:07:31.063Z,59.23
2023-04-01T22:10:35.025Z,62.24
2023-04-01T22:13:29.710Z,66.91
2023-04-01T22:16:12.697Z,64.76
2023-04-01T22:18:51.551Z,61.60
2023-04-01T22:21:37.750Z,57.28
2023-04-01T22:24:11.343Z,56.35
2023-04-01T22:27:00.719Z,57.93
2023-04-01T22:30:10.154Z,59.36
2023-04-01T22:32:44.194Z,61.11
2023-04-01T22:35:24.114Z,66.43
2023-04-01T22:38:11.918Z,66.34
2023-04-01T22:41:10.175Z,63.47
2023-04-01T22:43:40.745Z,57.96
2023-04-01T22:46:17.824Z,56.36
2023-04-01T22:48:55.067Z,57.23
2023-04-01T22:51:29.404Z,59.72
2023-04-01T22:54:09.315Z,62.75
2023-04-01T22:56:41.891Z,65.29
2023-04-01T22:59:17.145Z,63.32
2023-04-01T23:01:55.401Z,61.46
2023-04-01T23:04:30.218Z,57.44
2023-04-01T23:07:04.803Z,55.35
2023-04-01T23:09:36.505Z,56.57
2023-04-01T23:12:32.754Z,59.68
2023-04-01T23:15:01.574Z,61.89
2023-04-01T23:17:40.417Z,65.65
2023-04-01T23:20:08.328Z,61.87
2023-04-01T23:22:51.562Z,58.46
2023-04-01T23:25:40.936Z,56.88
2023-04-01T23:28:47.768Z,58.92
2023-04-01T23:31:31.172Z,60.02
2023-04-01T23:34:07.027Z,64.57
2023-04-01T23:40:36.544Z,57.45
2023-04-01T23:43:15.046Z,56.29
2023-04-01T23:45:43.794Z,57.95
2023-04-01T23:52:55.032Z,59.52
2023-04-01T23:55:27.193Z,65.60
2023-04-01T23:58:16.414Z,67.04
